Time;durP1;ratioP1;P1;durP2;ratioP2;P2;SDS_P1;SDS_P2;PMS_P1;PMS_P2;Temp;Humidity;BMP_temperature;BMP_pressure;BME280_temperature;BME280_humidity;BME280_pressure;Samples;Min_cycle;Max_cycle;Signal;HPM_P1;HPM_P2
2022/09/05 00:02:18;;;;;;;4.55;2.20;;;;;;;-147.76;100.00;60361.69;5032532;28;20048;-75
2022/09/05 00:05:28;;;;;;;5.15;2.20;;;;;;;-147.76;100.00;60361.69;5032693;28;20196;-75
2022/09/05 00:08:19;;;;;;;6.13;2.25;;;;;;;-147.76;100.00;60361.69;5032164;28;20053;-74
2022/09/05 00:11:10;;;;;;;4.03;2.00;;;;;;;-147.76;100.00;60361.69;5032442;28;20048;-75
2022/09/05 00:14:08;;;;;;;4.10;2.13;;;;;;;-147.76;100.00;60361.69;5032498;28;20059;-73
2022/09/05 00:17:01;;;;;;;4.50;2.22;;;;;;;-147.76;100.00;60361.69;5032405;28;20052;-75
2022/09/05 00:19:53;;;;;;;6.18;2.00;;;;;;;-147.76;100.00;60361.69;5032508;28;20441;-75
2022/09/05 00:22:46;;;;;;;4.60;2.20;;;;;;;-147.76;100.00;60361.69;5048908;28;20389;-71
2022/09/05 00:25:50;;;;;;;6.07;2.30;;;;;;;-147.76;100.00;60361.69;5108734;28;20047;-71
2022/09/05 00:28:41;;;;;;;4.50;2.03;;;;;;;-147.76;100.00;60361.69;5094408;28;20074;-69
2022/09/05 00:31:41;;;;;;;5.22;2.10;;;;;;;-147.76;100.00;60361.69;5094265;28;20050;-69
2022/09/05 00:34:42;;;;;;;5.35;2.05;;;;;;;-147.76;100.00;60361.69;5094402;28;20043;-69
2022/09/05 00:37:32;;;;;;;5.70;2.00;;;;;;;-147.76;100.00;60361.69;5093860;28;20043;-73
2022/09/05 00:40:27;;;;;;;5.00;2.00;;;;;;;-147.76;100.00;60361.69;5113199;28;20058;-70
2022/09/05 00:43:15;;;;;;;5.90;2.28;;;;;;;-147.76;100.00;60361.69;5114448;28;20400;-73
2022/09/05 00:46:03;;;;;;;4.82;2.10;;;;;;;-147.76;100.00;60361.69;5114143;28;20054;-70
2022/09/05 00:48:51;;;;;;;4.97;2.25;;;;;;;-147.76;100.00;60361.69;5114426;28;20108;-70
2022/09/05 00:51:41;;;;;;;5.13;2.22;;;;;;;-147.76;100.00;60361.69;5113941;28;20185;-71
2022/09/05 00:54:51;;;;;;;5.03;2.30;;;;;;;-147.76;100.00;60361.69;5114345;28;20116;-73
2022/09/05 00:57:51;;;;;;;7.25;2.13;;;;;;;-147.76;100.00;60361.69;5114221;28;20055;-70
2022/09/05 01:00:46;;;;;;;3.97;1.90;;;;;;;-147.76;100.00;60361.69;5114205;28;20051;-71
2022/09/05 01:03:48;;;;;;;5.85;2.10;;;;;;;-147.76;100.00;60361.69;5134374;27;20092;-69
2022/09/05 01:06:43;;;;;;;5.13;2.30;;;;;;;-147.76;100.00;60361.69;5134406;27;20168;-73
2022/09/05 01:09:38;;;;;;;5.00;2.03;;;;;;;-147.76;100.00;60361.69;5134415;27;20105;-72
2022/09/05 01:12:40;;;;;;;4.28;2.15;;;;;;;-147.76;100.00;60361.69;5133384;27;20050;-73
2022/09/05 01:15:35;;;;;;;4.53;2.20;;;;;;;-147.76;100.00;60361.69;5134348;27;20047;-71
2022/09/05 01:18:42;;;;;;;4.07;2.00;;;;;;;-147.76;100.00;60361.69;5134648;27;20124;-75
2022/09/05 01:21:42;;;;;;;2.60;1.80;;;;;;;-147.76;100.00;60361.69;5134056;27;20084;-75
2022/09/05 01:24:42;;;;;;;4.30;2.00;;;;;;;-147.76;100.00;60361.69;5134375;27;20047;-73
2022/09/05 01:27:52;;;;;;;6.95;1.98;;;;;;;-147.76;100.00;60361.69;5119137;27;20054;-70
2022/09/05 01:30:42;;;;;;;3.67;2.00;;;;;;;-147.76;100.00;60361.69;5113665;28;20124;-75
2022/09/05 01:33:35;;;;;;;3.70;2.00;;;;;;;-147.76;100.00;60361.69;5113559;28;20047;-69
2022/09/05 01:36:30;;;;;;;6.15;2.00;;;;;;;-147.76;100.00;60361.69;5113803;28;20108;-71
2022/09/05 01:39:20;;;;;;;4.50;1.90;;;;;;;-147.76;100.00;60361.69;5113493;28;20189;-70
2022/09/05 01:42:13;;;;;;;3.75;2.00;;;;;;;-147.76;100.00;60361.69;5113581;28;20109;-71
2022/09/05 01:45:03;;;;;;;6.45;1.98;;;;;;;-147.76;100.00;60361.69;5113370;28;20169;-72
2022/09/05 01:47:52;;;;;;;5.05;2.00;;;;;;;-147.76;100.00;60361.69;5113662;28;20055;-75
2022/09/05 01:50:44;;;;;;;4.60;1.83;;;;;;;-147.76;100.00;60361.69;5113318;28;20058;-74
2022/09/05 01:53:39;;;;;;;3.28;1.90;;;;;;;-147.76;100.00;60361.69;5113382;28;20523;-69
2022/09/05 01:56:36;;;;;;;3.78;1.70;;;;;;;-147.76;100.00;60361.69;5113653;28;20108;-72
2022/09/05 01:59:40;;;;;;;6.72;1.95;;;;;;;-147.76;100.00;60361.69;5113564;28;20059;-74
2022/09/05 02:02:41;;;;;;;5.68;2.00;;;;;;;-147.76;100.00;60361.69;5118887;28;20041;-75
2022/09/05 02:06:01;;;;;;;5.30;2.00;;;;;;;-147.76;100.00;60361.69;5133924;28;20112;-72
2022/09/05 02:08:56;;;;;;;4.18;1.80;;;;;;;-147.76;100.00;60361.69;4991316;28;20105;-69
2022/09/05 02:11:46;;;;;;;4.07;2.00;;;;;;;-147.76;100.00;60361.69;4991389;28;20061;-75
2022/09/05 02:14:37;;;;;;;3.35;1.90;;;;;;;-147.76;100.00;60361.69;4991356;28;20423;-75
2022/09/05 02:17:27;;;;;;;3.85;1.80;;;;;;;-147.76;100.00;60361.69;4991093;28;20140;-68
2022/09/05 02:20:18;;;;;;;4.70;1.80;;;;;;;-147.76;100.00;60361.69;4991402;28;20046;-72
2022/09/05 02:23:08;;;;;;;4.75;2.05;;;;;;;-147.76;100.00;60361.69;4992452;28;20073;-74
2022/09/05 02:25:58;;;;;;;3.50;1.80;;;;;;;-147.76;100.00;60361.69;4995125;28;20420;-72
2022/09/05 02:28:50;;;;;;;4.28;1.90;;;;;;;-147.76;100.00;60361.69;4956201;28;20178;-71
2022/09/05 02:31:43;;;;;;;4.82;2.08;;;;;;;-147.76;100.00;60361.69;4956225;28;20050;-75
2022/09/05 02:34:35;;;;;;;3.22;1.75;;;;;;;-147.76;100.00;60361.69;4956134;29;20437;-72
2022/09/05 02:37:26;;;;;;;5.65;2.00;;;;;;;-147.76;100.00;60361.69;4956179;28;20544;-75
2022/09/05 02:40:17;;;;;;;6.20;2.00;;;;;;;-147.76;100.00;60361.69;4973218;28;20062;-76
2022/09/05 02:43:10;;;;;;;4.63;1.90;;;;;;;-147.76;100.00;60361.69;4975210;28;20089;-72
2022/09/05 02:46:00;;;;;;;2.58;1.70;;;;;;;-147.76;100.00;60361.69;5068182;28;20100;-75
2022/09/05 02:48:51;;;;;;;3.83;1.90;;;;;;;-147.76;100.00;60361.69;5116899;28;20419;-75
2022/09/05 02:51:39;;;;;;;5.13;1.95;;;;;;;-147.76;100.00;60361.69;5116694;27;20059;-70
2022/09/05 02:54:30;;;;;;;2.75;1.90;;;;;;;-147.76;100.00;60361.69;5116537;28;20066;-71
2022/09/05 02:57:37;;;;;;;4.75;1.80;;;;;;;-147.76;100.00;60361.69;5116521;28;20062;-75
2022/09/05 03:00:26;;;;;;;4.43;2.00;;;;;;;-147.76;100.00;60361.69;5116567;28;20057;-74
2022/09/05 03:03:20;;;;;;;4.82;1.70;;;;;;;-147.76;100.00;60361.69;5125553;27;20050;-72
2022/09/05 03:06:13;;;;;;;5.13;1.92;;;;;;;-147.76;100.00;60361.69;5136975;27;20096;-75
2022/09/05 03:09:10;;;;;;;4.13;1.70;;;;;;;-147.76;100.00;60361.69;5136883;27;20046;-75
2022/09/05 03:12:06;;;;;;;;;;;;;;;-147.76;100.00;60361.69;5137172;27;20430;-74
2022/09/05 03:15:33;;;;;;;3.40;1.77;;;;;;;-147.76;100.00;60361.69;5136922;27;19926;-71
2022/09/05 03:19:07;;;;;;;4.18;1.88;;;;;;;-147.76;100.00;60361.69;5136774;27;20046;-74
2022/09/05 03:22:13;;;;;;;5.75;2.00;;;;;;;-147.76;100.00;60361.69;5136815;27;20495;-74
2022/09/05 03:25:41;;;;;;;5.57;1.93;;;;;;;-147.76;100.00;60361.69;5136636;27;20058;-75
2022/09/05 03:29:01;;;;;;;4.63;1.80;;;;;;;-147.76;100.00;60361.69;5122170;27;20177;-75
2022/09/05 03:32:01;;;;;;;8.70;3.47;;;;;;;-147.76;100.00;60361.69;5115598;28;20047;-74
2022/09/05 03:35:19;;;;;;;4.45;1.88;;;;;;;-147.76;100.00;60361.69;5114936;28;20070;-75
2022/09/05 03:38:54;;;;;;;8.98;2.00;;;;;;;-147.76;100.00;60361.69;5115586;28;20050;-75
2022/09/05 03:42:14;;;;;;;4.38;2.00;;;;;;;-147.76;100.00;60361.69;5095424;28;20169;-75
2022/09/05 03:45:15;;;;;;;3.88;2.05;;;;;;;-147.76;100.00;60361.69;5101634;28;20565;-74
2022/09/05 03:48:22;;;;;;;3.85;1.90;;;;;;;-147.76;100.00;60361.69;5115538;28;20404;-75
2022/09/05 03:51:19;;;;;;;3.25;2.00;;;;;;;-147.76;100.00;60361.69;5115692;28;20047;-75
2022/09/05 03:54:27;;;;;;;9.13;3.40;;;;;;;-147.76;100.00;60361.69;5115380;28;20076;-75
2022/09/05 03:57:46;;;;;;;4.97;2.00;;;;;;;-147.76;100.00;60361.69;5072758;28;20044;-75
2022/09/05 04:00:35;;;;;;;4.45;2.03;;;;;;;-147.76;100.00;60361.69;5072355;28;20534;-75
2022/09/05 04:03:26;;;;;;;3.28;1.90;;;;;;;-147.76;100.00;60361.69;5081728;28;20101;-73
2022/09/05 04:06:18;;;;;;;3.92;1.75;;;;;;;-147.76;100.00;60361.69;5092718;28;20429;-73
2022/09/05 04:09:09;;;;;;;4.80;1.90;;;;;;;-147.76;100.00;60361.69;5092723;28;20039;-75
2022/09/05 04:11:57;;;;;;;3.38;1.52;;;;;;;-147.76;100.00;60361.69;5092408;28;20631;-75
2022/09/05 04:14:47;;;;;;;6.18;1.88;;;;;;;-147.76;100.00;60361.69;5092089;28;20063;-75
2022/09/05 04:17:36;;;;;;;6.15;2.10;;;;;;;-147.76;100.00;60361.69;5092425;28;20043;-75
2022/09/05 04:20:28;;;;;;;8.23;2.70;;;;;;;-147.76;100.00;60361.69;5092553;28;20747;-72
2022/09/05 04:23:23;;;;;;;6.70;2.28;;;;;;;-147.76;100.00;60361.69;5092393;28;20046;-75
2022/09/05 04:26:23;;;;;;;5.68;1.80;;;;;;;-147.76;100.00;60361.69;5092508;28;20053;-74
2022/09/05 04:29:17;;;;;;;2.97;1.80;;;;;;;-147.76;100.00;60361.69;5078197;28;20153;-75
2022/09/05 04:32:14;;;;;;;3.22;1.83;;;;;;;-147.76;100.00;60361.69;5072023;28;20051;-75
2022/09/05 04:35:15;;;;;;;4.78;1.95;;;;;;;-147.76;100.00;60361.69;5106719;28;20050;-75
2022/09/05 04:38:11;;;;;;;5.45;2.28;;;;;;;-147.76;100.00;60361.69;5114567;28;20128;-75
2022/09/05 04:41:00;;;;;;;5.72;2.30;;;;;;;-147.76;100.00;60361.69;5109653;28;20051;-74
2022/09/05 04:43:48;;;;;;;4.88;1.90;;;;;;;-147.76;100.00;60361.69;5114114;28;20126;-75
2022/09/05 04:46:39;;;;;;;4.70;2.00;;;;;;;-147.76;100.00;60361.69;5114217;28;20050;-75
2022/09/05 04:49:27;;;;;;;6.57;2.17;;;;;;;-147.76;100.00;60361.69;5114363;28;20068;-74
2022/09/05 04:52:38;;;;;;;4.50;2.03;;;;;;;-147.76;100.00;60361.69;5114292;28;20124;-75
2022/09/05 04:55:25;;;;;;;8.10;2.10;;;;;;;-147.76;100.00;60361.69;5114366;28;20055;-74
2022/09/05 04:58:14;;;;;;;3.85;1.90;;;;;;;-147.76;100.00;60361.69;5113818;28;20050;-75
2022/09/05 05:01:04;;;;;;;5.68;2.72;;;;;;;-147.76;100.00;60361.69;5114171;28;20168;-75
2022/09/05 05:03:50;;;;;;;6.85;2.10;;;;;;;-147.76;100.00;60361.69;5115096;27;20120;-75
2022/09/05 05:06:38;;;;;;;;;;;;;;;-147.76;100.00;60361.69;5135173;27;20058;-75
2022/09/05 05:09:28;;;;;;;6.57;2.20;;;;;;;-147.76;100.00;60361.69;5134494;27;19927;-74
2022/09/05 05:12:19;;;;;;;4.57;1.90;;;;;;;-147.76;100.00;60361.69;5133903;27;20601;-75
2022/09/05 05:15:10;;;;;;;11.05;4.78;;;;;;;-147.76;100.00;60361.69;5134440;27;20188;-75
2022/09/05 05:18:03;;;;;;;5.72;2.15;;;;;;;-147.76;100.00;60361.69;5134352;27;20499;-75
2022/09/05 05:20:56;;;;;;;3.42;1.80;;;;;;;-147.76;100.00;60361.69;5134521;27;20050;-71
2022/09/05 05:23:43;;;;;;;6.65;2.00;;;;;;;-147.76;100.00;60361.69;5134400;27;20335;-70
2022/09/05 05:26:34;;;;;;;2.45;1.80;;;;;;;-147.76;100.00;60361.69;5134006;27;20050;-74
2022/09/05 05:29:24;;;;;;;4.60;1.95;;;;;;;-147.76;100.00;60361.69;5128344;27;20043;-74
2022/09/05 05:32:17;;;;;;;6.05;2.22;;;;;;;-147.76;100.00;60361.69;5113662;28;20059;-70
2022/09/05 05:35:07;;;;;;;4.50;2.00;;;;;;;-147.76;100.00;60361.69;5113610;28;20055;-71
2022/09/05 05:37:55;;;;;;;4.28;1.83;;;;;;;-147.76;100.00;60361.69;5113606;28;20108;-75
2022/09/05 05:40:47;;;;;;;6.15;1.73;;;;;;;-147.76;100.00;60361.69;5106020;28;20413;-74
2022/09/05 05:43:37;;;;;;;3.17;2.00;;;;;;;-147.76;100.00;60361.69;5113458;28;20408;-71
2022/09/05 05:46:32;;;;;;;3.83;1.90;;;;;;;-147.76;100.00;60361.69;5113481;28;20062;-73
2022/09/05 05:49:37;;;;;;;6.00;1.85;;;;;;;-147.76;100.00;60361.69;5113695;28;20058;-75
2022/09/05 05:52:39;;;;;;;8.27;3.75;;;;;;;-147.76;100.00;60361.69;5113526;28;20412;-75
2022/09/05 05:55:42;;;;;;;4.47;2.00;;;;;;;-147.76;100.00;60361.69;5113314;28;20050;-69
2022/09/05 05:58:42;;;;;;;5.38;2.00;;;;;;;-147.76;100.00;60361.69;5115457;28;20165;-74
2022/09/05 06:01:56;;;;;;;3.47;1.70;;;;;;;-147.76;100.00;60361.69;5117641;28;20054;-75
2022/09/05 06:05:27;;;;;;;3.50;1.67;;;;;;;-147.76;100.00;60361.69;5124880;27;20050;-72
2022/09/05 06:08:36;;;;;;;5.18;2.40;;;;;;;-147.76;100.00;60361.69;5138156;27;20041;-74
2022/09/05 06:12:00;;;;;;;4.85;1.98;;;;;;;-147.76;100.00;60361.69;5137379;27;20404;-74
2022/09/05 06:15:24;;;;;;;3.28;1.60;;;;;;;-147.76;100.00;60361.69;5137912;27;20054;-73
2022/09/05 06:18:55;;;;;;;2.33;1.50;;;;;;;-147.76;100.00;60361.69;5137939;27;20537;-72
2022/09/05 06:22:29;;;;;;;1.52;1.42;;;;;;;-147.76;100.00;60361.69;5137769;27;20124;-70
2022/09/05 06:25:43;;;;;;;3.47;1.50;;;;;;;-147.76;100.00;60361.69;5073954;28;20425;-75
2022/09/05 06:28:37;;;;;;;5.20;1.65;;;;;;;-147.76;100.00;60361.69;5074461;28;20125;-75
2022/09/05 06:31:37;;;;;;;4.60;1.60;;;;;;;-147.76;100.00;60361.69;5055260;28;20422;-74
2022/09/05 06:34:43;;;;;;;3.17;1.40;;;;;;;-147.76;100.00;60361.69;5054273;28;20070;-73
2022/09/05 06:37:39;;;;;;;2.20;1.58;;;;;;;-147.76;100.00;60361.69;5054195;28;20080;-69
2022/09/05 06:40:27;;;;;;;3.00;1.60;;;;;;;-147.76;100.00;60361.69;5053588;28;20048;-75
2022/09/05 06:43:26;;;;;;;3.00;1.70;;;;;;;-147.76;100.00;60361.69;5054189;28;20143;-74
2022/09/05 06:46:23;;;;;;;4.72;1.58;;;;;;;-147.76;100.00;60361.69;5053877;28;20138;-74
2022/09/05 06:49:16;;;;;;;3.88;1.30;;;;;;;-147.76;100.00;60361.69;5053927;28;20083;-74
2022/09/05 06:52:44;;;;;;;2.63;1.40;;;;;;;-147.76;100.00;60361.69;5053854;28;20044;-72
2022/09/05 06:55:40;;;;;;;2.88;1.50;;;;;;;-147.76;100.00;60361.69;5014015;28;20545;-70
2022/09/05 06:59:05;;;;;;;3.72;1.50;;;;;;;-147.76;100.00;60361.69;5041360;28;20205;-75
2022/09/05 07:01:54;;;;;;;2.40;1.48;;;;;;;-147.76;100.00;60361.69;5092983;28;20085;-70
2022/09/05 07:04:44;;;;;;;3.63;1.50;;;;;;;-147.76;100.00;60361.69;5094130;28;20054;-73
2022/09/05 07:07:36;;;;;;;3.42;1.40;;;;;;;-147.76;100.00;60361.69;5112187;28;20058;-75
2022/09/05 07:10:26;;;;;;;1.95;1.38;;;;;;;-147.76;100.00;60361.69;5113010;28;20046;-71
2022/09/05 07:13:15;;;;;;;1.98;1.40;;;;;;;-147.76;100.00;60361.69;5113998;28;20066;-70
2022/09/05 07:16:08;;;;;;;2.35;1.40;;;;;;;-147.76;100.00;60361.69;5114117;28;20070;-74
2022/09/05 07:19:00;;;;;;;4.10;1.88;;;;;;;-147.76;100.00;60361.69;5114217;28;20519;-70
2022/09/05 07:22:05;;;;;;;2.95;1.48;;;;;;;-147.76;100.00;60361.69;5113966;28;20050;-70
2022/09/05 07:24:51;;;;;;;3.33;1.25;;;;;;;-147.76;100.00;60361.69;5114016;28;20185;-69
2022/09/05 07:27:41;;;;;;;2.15;1.40;;;;;;;-147.76;100.00;60361.69;5113898;28;20051;-73
2022/09/05 07:30:27;;;;;;;5.78;1.80;;;;;;;-147.76;100.00;60361.69;5110415;28;20047;-75
2022/09/05 07:33:18;;;;;;;9.82;4.22;;;;;;;-147.76;100.00;60361.69;5090647;28;20123;-75
2022/09/05 07:36:08;;;;;;;6.70;2.80;;;;;;;-147.76;100.00;60361.69;5095427;28;20112;-76
2022/09/05 07:38:58;;;;;;;5.60;1.88;;;;;;;-147.76;100.00;60361.69;5102621;28;20038;-74
2022/09/05 07:41:49;;;;;;;4.28;1.67;;;;;;;-147.76;100.00;60361.69;5095288;28;20152;-71
2022/09/05 07:44:37;;;;;;;5.50;1.50;;;;;;;-147.76;100.00;60361.69;5098650;28;20054;-74
2022/09/05 07:47:26;;;;;;;2.50;1.50;;;;;;;-147.76;100.00;60361.69;5115667;28;20112;-70
2022/09/05 07:50:12;;;;;;;3.70;1.60;;;;;;;-147.76;100.00;60361.69;5115595;28;20524;-75
2022/09/05 07:53:02;;;;;;;4.05;1.63;;;;;;;-147.76;100.00;60361.69;5115159;28;20128;-75
2022/09/05 07:55:52;;;;;;;2.75;1.50;;;;;;;-147.76;100.00;60361.69;5115608;28;20057;-75
2022/09/05 07:58:40;;;;;;;1.48;1.38;;;;;;;-147.76;100.00;60361.69;5115383;28;20051;-71
2022/09/05 08:01:26;;;;;;;2.05;1.38;;;;;;;-147.76;100.00;60361.69;5115325;28;20136;-70
2022/09/05 08:04:24;;;;;;;3.78;1.63;;;;;;;-147.76;100.00;60361.69;5115308;28;20172;-75
2022/09/05 08:07:12;;;;;;;2.75;1.30;;;;;;;-147.76;100.00;60361.69;5126223;27;20050;-75
2022/09/05 08:10:01;;;;;;;9.18;2.10;;;;;;;-147.76;100.00;60361.69;5135815;27;20353;-71
2022/09/05 08:12:51;;;;;;;5.28;2.25;;;;;;;-147.76;100.00;60361.69;5135413;27;20518;-75
2022/09/05 08:15:38;;;;;;;6.00;1.98;;;;;;;-147.76;100.00;60361.69;5135513;27;20057;-75
2022/09/05 08:18:29;;;;;;;4.55;1.42;;;;;;;-147.76;100.00;60361.69;5135579;27;20070;-75
2022/09/05 08:21:20;;;;;;;2.40;1.30;;;;;;;-147.76;100.00;60361.69;5135076;27;20046;-70
2022/09/05 08:24:11;;;;;;;3.38;1.58;;;;;;;-147.76;100.00;60361.69;5135584;27;20050;-75
2022/09/05 08:27:02;;;;;;;2.75;1.35;;;;;;;-147.76;100.00;60361.69;5135494;27;20054;-75
2022/09/05 08:29:52;;;;;;;1.75;1.30;;;;;;;-147.76;100.00;60361.69;5135480;27;20046;-73
2022/09/05 08:32:43;;;;;;;4.97;1.48;;;;;;;-147.76;100.00;60361.69;5117598;27;20043;-75
2022/09/05 08:35:31;;;;;;;2.20;1.23;;;;;;;-147.76;100.00;60361.69;5114178;28;20188;-75
2022/09/05 08:38:17;;;;;;;2.03;1.00;;;;;;;-147.76;100.00;60361.69;5114529;28;20607;-75
2022/09/05 08:41:07;;;;;;;2.72;1.30;;;;;;;-147.76;100.00;60361.69;5114676;28;20066;-75
2022/09/05 08:44:00;;;;;;;1.40;1.13;;;;;;;-147.76;100.00;60361.69;5114588;28;20180;-74
2022/09/05 08:46:51;;;;;;;2.70;1.33;;;;;;;-147.76;100.00;60361.69;5094090;28;20067;-73
2022/09/05 08:49:54;;;;;;;2.13;1.20;;;;;;;-147.76;100.00;60361.69;5093647;28;20519;-73
2022/09/05 08:52:51;;;;;;;6.22;1.40;;;;;;;-147.76;100.00;60361.69;5094022;28;20042;-74
2022/09/05 08:55:43;;;;;;;2.53;1.33;;;;;;;-147.76;100.00;60361.69;5093953;28;20046;-75
2022/09/05 08:59:00;;;;;;;2.60;1.50;;;;;;;-147.76;100.00;60361.69;5093976;28;20054;-73
2022/09/05 09:02:02;;;;;;;8.07;2.63;;;;;;;-147.76;100.00;60361.69;5093961;28;20139;-75
2022/09/05 09:04:57;;;;;;;14.00;1.63;;;;;;;-147.76;100.00;60361.69;5093498;28;20109;-69
2022/09/05 09:07:44;;;;;;;2.60;1.10;;;;;;;-147.76;100.00;60361.69;5101295;27;20427;-75
2022/09/05 09:10:44;;;;;;;3.28;1.20;;;;;;;-147.76;100.00;60361.69;5134688;27;20169;-75
2022/09/05 09:13:46;;;;;;;2.35;1.17;;;;;;;-147.76;100.00;60361.69;5134260;27;20054;-74
2022/09/05 09:16:37;;;;;;;2.00;1.13;;;;;;;-147.76;100.00;60361.69;5134543;27;20411;-75
2022/09/05 09:19:26;;;;;;;1.20;1.10;;;;;;;-147.76;100.00;60361.69;5134100;27;20135;-75
2022/09/05 09:22:22;;;;;;;1.30;1.20;;;;;;;-147.76;100.00;60361.69;5134449;27;20092;-70
2022/09/05 09:25:10;;;;;;;0.93;0.93;;;;;;;-147.76;100.00;60361.69;5134552;27;20552;-74
2022/09/05 09:28:19;;;;;;;2.75;1.02;;;;;;;-147.76;100.00;60361.69;5134442;27;20057;-75
2022/09/05 09:31:17;;;;;;;18.65;3.30;;;;;;;-147.76;100.00;60361.69;5134529;27;20050;-73
2022/09/05 09:34:14;;;;;;;2.97;1.20;;;;;;;-147.76;100.00;60361.69;5115883;27;20049;-75
2022/09/05 09:37:21;;;;;;;2.22;1.27;;;;;;;-147.76;100.00;60361.69;5113716;28;20512;-74
2022/09/05 09:40:34;;;;;;;1.53;1.10;;;;;;;-147.76;100.00;60361.69;5113481;28;20135;-76
2022/09/05 09:43:26;;;;;;;2.47;1.10;;;;;;;-147.76;100.00;60361.69;5113638;28;20055;-73
2022/09/05 09:46:17;;;;;;;1.20;1.00;;;;;;;-147.76;100.00;60361.69;5113449;28;20050;-75
2022/09/05 09:49:24;;;;;;;3.60;1.30;;;;;;;-147.76;100.00;60361.69;5113285;28;20043;-75
2022/09/05 09:52:36;;;;;;;2.03;1.05;;;;;;;-147.76;100.00;60361.69;5113414;28;20058;-75
2022/09/05 09:55:39;;;;;;;1.38;1.17;;;;;;;-147.76;100.00;60361.69;5113418;28;20058;-74
2022/09/05 09:58:52;;;;;;;1.42;1.20;;;;;;;-147.76;100.00;60361.69;5113533;28;20055;-75
2022/09/05 10:01:43;;;;;;;1.73;1.08;;;;;;;-147.76;100.00;60361.69;5113030;28;20051;-75
2022/09/05 10:04:55;;;;;;;1.58;1.20;;;;;;;-147.76;100.00;60361.69;5113635;28;20136;-75
2022/09/05 10:08:06;;;;;;;4.03;1.23;;;;;;;-147.76;100.00;60361.69;5113644;28;20051;-74
2022/09/05 10:11:11;;;;;;;1.38;0.98;;;;;;;-147.76;100.00;60361.69;5093099;28;20044;-75
2022/09/05 10:14:25;;;;;;;2.90;1.20;;;;;;;-147.76;100.00;60361.69;5052703;28;20087;-75
2022/09/05 10:17:36;;;;;;;1.10;0.90;;;;;;;-147.76;100.00;60361.69;5052251;28;20040;-76
2022/09/05 10:20:38;;;;;;;1.42;1.10;;;;;;;-147.76;100.00;60361.69;5052628;28;20171;-69
2022/09/05 10:23:35;;;;;;;2.05;1.10;;;;;;;-147.76;100.00;60361.69;5052574;28;20525;-70
2022/09/05 10:26:54;;;;;;;1.15;0.90;;;;;;;-147.76;100.00;60361.69;5052709;28;20170;-70
2022/09/05 10:29:46;;;;;;;1.02;1.02;;;;;;;-147.76;100.00;60361.69;5052572;28;20060;-69
2022/09/05 10:32:40;;;;;;;1.60;1.10;;;;;;;-147.76;100.00;60361.69;5052027;28;20067;-69
2022/09/05 10:35:28;;;;;;;2.33;1.20;;;;;;;-147.76;100.00;60361.69;5069857;28;20055;-73
2022/09/05 10:38:18;;;;;;;1.42;1.20;;;;;;;-147.76;100.00;60361.69;5072438;28;20128;-71
2022/09/05 10:41:09;;;;;;;1.42;1.10;;;;;;;-147.76;100.00;60361.69;5072429;28;20102;-70
2022/09/05 10:44:00;;;;;;;1.58;1.20;;;;;;;-147.76;100.00;60361.69;5073371;28;20043;-69
2022/09/05 10:46:57;;;;;;;3.30;1.15;;;;;;;-147.76;100.00;60361.69;5055601;28;20099;-74
2022/09/05 10:49:44;;;;;;;1.98;1.20;;;;;;;-147.76;100.00;60361.69;5055944;28;20055;-69
2022/09/05 10:52:35;;;;;;;2.70;1.23;;;;;;;-147.76;100.00;60361.69;5056089;28;20516;-73
2022/09/05 10:55:24;;;;;;;1.30;1.15;;;;;;;-147.76;100.00;60361.69;5055868;28;20060;-72
2022/09/05 10:58:18;;;;;;;1.17;1.00;;;;;;;-147.76;100.00;60361.69;5055844;28;20087;-71
2022/09/05 11:01:06;;;;;;;1.48;1.10;;;;;;;-147.76;100.00;60361.69;5055470;28;20444;-73
2022/09/05 11:03:54;;;;;;;2.72;1.38;;;;;;;-147.76;100.00;60361.69;5055977;28;20059;-70
2022/09/05 11:06:56;;;;;;;1.25;1.13;;;;;;;-147.76;100.00;60361.69;5055789;28;20048;-71
2022/09/05 11:09:51;;;;;;;5.18;1.20;;;;;;;-147.76;100.00;60361.69;5069204;28;20532;-72
2022/09/05 11:13:00;;;;;;;2.28;1.23;;;;;;;-147.76;100.00;60361.69;5097144;28;20105;-71
2022/09/05 11:16:00;;;;;;;2.97;1.10;;;;;;;-147.76;100.00;60361.69;5115802;28;20054;-70
2022/09/05 11:18:54;;;;;;;2.78;1.10;;;;;;;-147.76;100.00;60361.69;5116115;28;20062;-73
2022/09/05 11:21:50;;;;;;;1.42;1.02;;;;;;;-147.76;100.00;60361.69;5115991;28;20050;-75
2022/09/05 11:24:38;;;;;;;1.48;1.10;;;;;;;-147.76;100.00;60361.69;5115913;28;20042;-70
2022/09/05 11:27:32;;;;;;;1.88;1.50;;;;;;;-147.76;100.00;60361.69;5115963;28;20535;-73
2022/09/05 11:30:19;;;;;;;4.10;1.20;;;;;;;-147.76;100.00;60361.69;5115497;28;20047;-73
2022/09/05 11:33:30;;;;;;;1.60;1.10;;;;;;;-147.76;100.00;60361.69;5115837;28;20096;-71
2022/09/05 11:36:18;;;;;;;2.90;1.40;;;;;;;-147.76;100.00;60361.69;5097220;28;20051;-71
2022/09/05 11:39:13;;;;;;;4.90;1.20;;;;;;;-147.76;100.00;60361.69;5103888;28;20185;-72
2022/09/05 11:42:35;;;;;;;2.38;1.20;;;;;;;-147.76;100.00;60361.69;5095163;28;20051;-69
2022/09/05 11:45:40;;;;;;;4.72;1.20;;;;;;;-147.76;100.00;60361.69;5022540;28;20568;-75
2022/09/05 11:48:53;;;;;;;6.28;1.30;;;;;;;-147.76;100.00;60361.69;5032948;28;20176;-74
2022/09/05 11:52:09;;;;;;;1.45;1.20;;;;;;;-147.76;100.00;60361.69;5029818;28;20048;-71
2022/09/05 11:55:14;;;;;;;2.17;1.10;;;;;;;-147.76;100.00;60361.69;5032660;28;20056;-71
2022/09/05 11:58:19;;;;;;;1.50;1.13;;;;;;;-147.76;100.00;60361.69;5032405;28;20048;-70
2022/09/05 12:01:09;;;;;;;4.05;1.20;;;;;;;-147.76;100.00;60361.69;5032546;28;20041;-71
2022/09/05 12:04:31;;;;;;;3.63;1.00;;;;;;;-147.76;100.00;60361.69;5032718;28;20403;-69
2022/09/05 12:07:45;;;;;;;2.05;1.20;;;;;;;-147.76;100.00;60361.69;4954489;29;20523;-73
2022/09/05 12:10:38;;;;;;;3.00;1.23;;;;;;;-147.76;100.00;60361.69;4954357;29;20061;-75
2022/09/05 12:13:33;;;;;;;5.25;1.20;;;;;;;-147.76;100.00;60361.69;4953725;29;20146;-72
2022/09/05 12:16:52;;;;;;;1.48;1.10;;;;;;;-147.76;100.00;60361.69;5018097;28;20130;-75
2022/09/05 12:19:42;;;;;;;1.73;1.00;;;;;;;-147.76;100.00;60361.69;5042664;28;20106;-70
2022/09/05 12:22:28;;;;;;;3.25;1.30;;;;;;;-147.76;100.00;60361.69;5052133;28;20529;-75
2022/09/05 12:25:27;;;;;;;0.90;0.90;;;;;;;-147.76;100.00;60361.69;5052192;28;20167;-75
2022/09/05 12:28:18;;;;;;;2.85;1.05;;;;;;;-147.76;100.00;60361.69;5051868;28;20048;-75
2022/09/05 12:31:16;;;;;;;1.55;1.10;;;;;;;-147.76;100.00;60361.69;5052179;28;20056;-75
2022/09/05 12:34:08;;;;;;;1.63;1.20;;;;;;;-147.76;100.00;60361.69;5052132;28;20060;-74
2022/09/05 12:36:57;;;;;;;1.83;1.10;;;;;;;-147.76;100.00;60361.69;5037039;28;20056;-70
2022/09/05 12:39:44;;;;;;;5.28;1.27;;;;;;;-147.76;100.00;60361.69;5045895;28;20056;-70
2022/09/05 12:42:38;;;;;;;1.90;1.35;;;;;;;-147.76;100.00;60361.69;5079588;28;20147;-72
2022/09/05 12:45:28;;;;;;;2.10;1.20;;;;;;;-147.76;100.00;60361.69;5114314;28;20634;-75
2022/09/05 12:48:17;;;;;;;1.20;1.10;;;;;;;-147.76;100.00;60361.69;5114346;28;20057;-70
2022/09/05 12:51:05;;;;;;;1.17;1.08;;;;;;;-147.76;100.00;60361.69;5114505;28;20050;-72
2022/09/05 12:53:55;;;;;;;1.35;1.00;;;;;;;-147.76;100.00;60361.69;5114392;28;20124;-74
2022/09/05 12:56:48;;;;;;;1.13;1.00;;;;;;;-147.76;100.00;60361.69;5113930;28;20047;-75
2022/09/05 12:59:35;;;;;;;1.90;1.10;;;;;;;-147.76;100.00;60361.69;5114253;28;20050;-72
2022/09/05 13:02:23;;;;;;;2.30;1.20;;;;;;;-147.76;100.00;60361.69;5114108;28;20531;-71
2022/09/05 13:05:12;;;;;;;2.55;1.05;;;;;;;-147.76;100.00;60361.69;5114138;28;20047;-75
2022/09/05 13:07:59;;;;;;;2.53;1.20;;;;;;;-147.76;100.00;60361.69;5113111;28;20401;-74
2022/09/05 13:10:50;;;;;;;3.80;1.35;;;;;;;-147.76;100.00;60361.69;5116939;27;20510;-75
2022/09/05 13:13:43;;;;;;;1.20;0.90;;;;;;;-147.76;100.00;60361.69;5134261;27;20062;-69
2022/09/05 13:16:30;;;;;;;2.33;1.10;;;;;;;-147.76;100.00;60361.69;5134457;27;20050;-75
2022/09/05 13:19:28;;;;;;;5.60;3.03;;;;;;;-147.76;100.00;60361.69;5134474;27;20135;-75
2022/09/05 13:22:15;;;;;;;3.33;1.20;;;;;;;-147.76;100.00;60361.69;5134369;27;20526;-75
2022/09/05 13:25:07;;;;;;;1.30;1.20;;;;;;;-147.76;100.00;60361.69;5134134;27;20055;-76